sensor_id;sensor_type;location;lat;lon;timestamp;P1;durP1;ratioP1;P2;durP2;ratioP2
11524;SDS011;5819;49.648;8.330;2024-01-30T00:02:19;28.17;;;23.07;;
11524;SDS011;5819;49.648;8.330;2024-01-30T00:04:47;26.42;;;22.70;;
11524;SDS011;5819;49.648;8.330;2024-01-30T00:07:14;25.40;;;21.33;;
11524;SDS011;5819;49.648;8.330;2024-01-30T00:09:43;29.07;;;22.10;;
11524;SDS011;5819;49.648;8.330;2024-01-30T00:12:11;31.93;;;25.03;;
11524;SDS011;5819;49.648;8.330;2024-01-30T00:14:40;32.03;;;23.17;;
11524;SDS011;5819;49.648;8.330;2024-01-30T00:17:10;31.10;;;23.77;;
11524;SDS011;5819;49.648;8.330;2024-01-30T00:19:38;35.63;;;23.57;;
11524;SDS011;5819;49.648;8.330;2024-01-30T00:22:06;31.23;;;23.93;;
11524;SDS011;5819;49.648;8.330;2024-01-30T00:24:34;30.23;;;24.48;;
11524;SDS011;5819;49.648;8.330;2024-01-30T00:27:02;33.37;;;24.33;;
11524;SDS011;5819;49.648;8.330;2024-01-30T00:29:30;35.03;;;23.40;;
11524;SDS011;5819;49.648;8.330;2024-01-30T00:32:00;31.47;;;22.57;;
11524;SDS011;5819;49.648;8.330;2024-01-30T00:34:29;40.95;;;28.20;;
11524;SDS011;5819;49.648;8.330;2024-01-30T00:36:57;38.73;;;25.63;;
11524;SDS011;5819;49.648;8.330;2024-01-30T00:39:25;35.63;;;25.50;;
11524;SDS011;5819;49.648;8.330;2024-01-30T00:41:54;33.93;;;25.30;;
11524;SDS011;5819;49.648;8.330;2024-01-30T00:44:22;39.67;;;26.50;;
11524;SDS011;5819;49.648;8.330;2024-01-30T00:46:49;38.77;;;25.67;;
11524;SDS011;5819;49.648;8.330;2024-01-30T00:49:17;36.70;;;26.08;;
11524;SDS011;5819;49.648;8.330;2024-01-30T00:51:47;38.22;;;25.98;;
11524;SDS011;5819;49.648;8.330;2024-01-30T00:54:14;39.27;;;26.47;;
11524;SDS011;5819;49.648;8.330;2024-01-30T00:56:42;38.25;;;25.05;;
11524;SDS011;5819;49.648;8.330;2024-01-30T00:59:10;36.53;;;27.00;;
11524;SDS011;5819;49.648;8.330;2024-01-30T01:01:38;30.70;;;22.70;;
11524;SDS011;5819;49.648;8.330;2024-01-30T01:04:06;34.40;;;22.77;;
11524;SDS011;5819;49.648;8.330;2024-01-30T01:06:34;29.37;;;22.80;;
11524;SDS011;5819;49.648;8.330;2024-01-30T01:09:04;37.10;;;26.40;;
11524;SDS011;5819;49.648;8.330;2024-01-30T01:11:31;29.83;;;24.10;;
11524;SDS011;5819;49.648;8.330;2024-01-30T01:13:59;32.33;;;23.63;;
11524;SDS011;5819;49.648;8.330;2024-01-30T01:16:27;27.90;;;22.27;;
11524;SDS011;5819;49.648;8.330;2024-01-30T01:18:55;26.92;;;21.73;;
11524;SDS011;5819;49.648;8.330;2024-01-30T01:21:23;25.63;;;20.87;;
11524;SDS011;5819;49.648;8.330;2024-01-30T01:23:51;27.57;;;22.17;;
11524;SDS011;5819;49.648;8.330;2024-01-30T01:26:20;30.83;;;22.23;;
11524;SDS011;5819;49.648;8.330;2024-01-30T01:28:48;32.73;;;23.10;;
11524;SDS011;5819;49.648;8.330;2024-01-30T01:31:16;27.47;;;21.63;;
11524;SDS011;5819;49.648;8.330;2024-01-30T01:33:44;31.23;;;23.37;;
11524;SDS011;5819;49.648;8.330;2024-01-30T01:36:13;26.30;;;22.37;;
11524;SDS011;5819;49.648;8.330;2024-01-30T01:38:41;28.33;;;23.00;;
11524;SDS011;5819;49.648;8.330;2024-01-30T01:41:09;28.93;;;22.13;;
11524;SDS011;5819;49.648;8.330;2024-01-30T01:43:38;28.10;;;22.20;;
11524;SDS011;5819;49.648;8.330;2024-01-30T01:46:06;27.50;;;21.87;;
11524;SDS011;5819;49.648;8.330;2024-01-30T01:48:35;27.53;;;22.23;;
11524;SDS011;5819;49.648;8.330;2024-01-30T01:51:06;25.97;;;21.87;;
11524;SDS011;5819;49.648;8.330;2024-01-30T01:53:34;26.83;;;21.97;;
11524;SDS011;5819;49.648;8.330;2024-01-30T01:56:02;30.27;;;21.90;;
11524;SDS011;5819;49.648;8.330;2024-01-30T01:58:31;28.53;;;21.53;;
11524;SDS011;5819;49.648;8.330;2024-01-30T02:01:00;26.98;;;20.77;;
11524;SDS011;5819;49.648;8.330;2024-01-30T02:03:30;25.73;;;20.33;;
11524;SDS011;5819;49.648;8.330;2024-01-30T02:05:57;27.10;;;21.27;;
11524;SDS011;5819;49.648;8.330;2024-01-30T02:08:26;25.95;;;20.13;;
11524;SDS011;5819;49.648;8.330;2024-01-30T02:10:54;27.63;;;21.48;;
11524;SDS011;5819;49.648;8.330;2024-01-30T02:13:22;26.60;;;21.27;;
11524;SDS011;5819;49.648;8.330;2024-01-30T02:15:50;23.53;;;20.90;;
11524;SDS011;5819;49.648;8.330;2024-01-30T02:18:20;23.65;;;20.40;;
11524;SDS011;5819;49.648;8.330;2024-01-30T02:20:48;24.37;;;19.73;;
11524;SDS011;5819;49.648;8.330;2024-01-30T02:23:17;22.47;;;19.13;;
11524;SDS011;5819;49.648;8.330;2024-01-30T02:25:46;29.35;;;20.77;;
11524;SDS011;5819;49.648;8.330;2024-01-30T02:28:15;25.85;;;20.58;;
11524;SDS011;5819;49.648;8.330;2024-01-30T02:30:43;24.80;;;19.40;;
11524;SDS011;5819;49.648;8.330;2024-01-30T02:33:11;27.10;;;20.17;;
11524;SDS011;5819;49.648;8.330;2024-01-30T02:35:40;26.17;;;21.38;;
11524;SDS011;5819;49.648;8.330;2024-01-30T02:38:08;27.43;;;21.70;;
11524;SDS011;5819;49.648;8.330;2024-01-30T02:40:37;28.17;;;20.57;;
11524;SDS011;5819;49.648;8.330;2024-01-30T02:43:05;31.30;;;21.60;;
11524;SDS011;5819;49.648;8.330;2024-01-30T02:45:33;28.73;;;20.93;;
11524;SDS011;5819;49.648;8.330;2024-01-30T02:48:01;30.65;;;21.35;;
11524;SDS011;5819;49.648;8.330;2024-01-30T02:50:29;29.93;;;22.13;;
11524;SDS011;5819;49.648;8.330;2024-01-30T02:52:57;29.63;;;21.80;;
11524;SDS011;5819;49.648;8.330;2024-01-30T02:55:25;27.97;;;21.60;;
11524;SDS011;5819;49.648;8.330;2024-01-30T02:57:55;27.50;;;21.67;;
11524;SDS011;5819;49.648;8.330;2024-01-30T03:00:23;28.90;;;21.70;;
11524;SDS011;5819;49.648;8.330;2024-01-30T03:02:51;28.57;;;21.50;;
11524;SDS011;5819;49.648;8.330;2024-01-30T03:05:19;28.13;;;21.00;;
11524;SDS011;5819;49.648;8.330;2024-01-30T03:07:47;27.10;;;21.03;;
11524;SDS011;5819;49.648;8.330;2024-01-30T03:10:15;28.13;;;20.50;;
11524;SDS011;5819;49.648;8.330;2024-01-30T03:12:43;28.17;;;20.07;;
11524;SDS011;5819;49.648;8.330;2024-01-30T03:15:13;28.42;;;20.48;;
11524;SDS011;5819;49.648;8.330;2024-01-30T03:17:41;26.63;;;20.87;;
11524;SDS011;5819;49.648;8.330;2024-01-30T03:20:09;27.90;;;20.90;;
11524;SDS011;5819;49.648;8.330;2024-01-30T03:22:37;30.38;;;20.52;;
11524;SDS011;5819;49.648;8.330;2024-01-30T03:25:05;26.30;;;20.30;;
11524;SDS011;5819;49.648;8.330;2024-01-30T03:27:34;25.47;;;20.23;;
11524;SDS011;5819;49.648;8.330;2024-01-30T03:30:02;29.37;;;20.77;;
11524;SDS011;5819;49.648;8.330;2024-01-30T03:32:32;28.33;;;20.63;;
11524;SDS011;5819;49.648;8.330;2024-01-30T03:35:00;26.13;;;20.53;;
11524;SDS011;5819;49.648;8.330;2024-01-30T03:37:28;25.63;;;20.17;;
11524;SDS011;5819;49.648;8.330;2024-01-30T03:39:56;23.20;;;20.30;;
11524;SDS011;5819;49.648;8.330;2024-01-30T03:42:24;23.70;;;19.23;;
11524;SDS011;5819;49.648;8.330;2024-01-30T03:44:52;27.27;;;19.07;;
11524;SDS011;5819;49.648;8.330;2024-01-30T03:47:21;24.87;;;19.27;;
11524;SDS011;5819;49.648;8.330;2024-01-30T03:49:50;23.47;;;19.63;;
11524;SDS011;5819;49.648;8.330;2024-01-30T03:52:19;25.43;;;20.30;;
11524;SDS011;5819;49.648;8.330;2024-01-30T03:54:47;26.10;;;19.93;;
11524;SDS011;5819;49.648;8.330;2024-01-30T03:57:14;25.17;;;19.43;;
11524;SDS011;5819;49.648;8.330;2024-01-30T03:59:43;28.67;;;20.60;;
11524;SDS011;5819;49.648;8.330;2024-01-30T04:02:10;25.47;;;18.73;;
11524;SDS011;5819;49.648;8.330;2024-01-30T04:04:39;24.63;;;19.67;;
11524;SDS011;5819;49.648;8.330;2024-01-30T04:07:08;25.37;;;19.57;;
11524;SDS011;5819;49.648;8.330;2024-01-30T04:09:37;25.13;;;18.63;;
11524;SDS011;5819;49.648;8.330;2024-01-30T04:12:06;26.35;;;18.90;;
11524;SDS011;5819;49.648;8.330;2024-01-30T04:14:34;27.33;;;19.67;;
11524;SDS011;5819;49.648;8.330;2024-01-30T04:17:03;24.33;;;19.53;;
11524;SDS011;5819;49.648;8.330;2024-01-30T04:19:30;25.50;;;20.13;;
11524;SDS011;5819;49.648;8.330;2024-01-30T04:21:58;27.77;;;20.50;;
11524;SDS011;5819;49.648;8.330;2024-01-30T04:24:27;29.33;;;21.23;;
11524;SDS011;5819;49.648;8.330;2024-01-30T04:26:55;26.38;;;20.67;;
11524;SDS011;5819;49.648;8.330;2024-01-30T04:29:24;27.83;;;20.45;;
11524;SDS011;5819;49.648;8.330;2024-01-30T04:31:52;30.02;;;21.05;;
11524;SDS011;5819;49.648;8.330;2024-01-30T04:34:20;27.65;;;21.17;;
11524;SDS011;5819;49.648;8.330;2024-01-30T04:36:48;24.87;;;20.07;;
11524;SDS011;5819;49.648;8.330;2024-01-30T04:39:15;27.10;;;20.20;;
11524;SDS011;5819;49.648;8.330;2024-01-30T04:41:45;25.65;;;19.30;;
11524;SDS011;5819;49.648;8.330;2024-01-30T04:44:12;25.27;;;19.67;;
11524;SDS011;5819;49.648;8.330;2024-01-30T04:46:40;24.03;;;19.93;;
11524;SDS011;5819;49.648;8.330;2024-01-30T04:49:08;27.30;;;19.80;;
11524;SDS011;5819;49.648;8.330;2024-01-30T04:51:37;28.10;;;20.47;;
11524;SDS011;5819;49.648;8.330;2024-01-30T04:54:04;28.60;;;19.73;;
11524;SDS011;5819;49.648;8.330;2024-01-30T04:56:32;27.10;;;19.77;;
11524;SDS011;5819;49.648;8.330;2024-01-30T04:59:02;26.80;;;20.23;;
11524;SDS011;5819;49.648;8.330;2024-01-30T05:01:31;24.48;;;19.35;;
11524;SDS011;5819;49.648;8.330;2024-01-30T05:03:59;26.70;;;19.53;;
11524;SDS011;5819;49.648;8.330;2024-01-30T05:06:29;28.90;;;19.67;;
11524;SDS011;5819;49.648;8.330;2024-01-30T05:08:57;25.20;;;19.40;;
11524;SDS011;5819;49.648;8.330;2024-01-30T05:11:25;25.50;;;19.60;;
11524;SDS011;5819;49.648;8.330;2024-01-30T05:13:53;22.43;;;18.80;;
11524;SDS011;5819;49.648;8.330;2024-01-30T05:16:22;26.57;;;18.90;;
11524;SDS011;5819;49.648;8.330;2024-01-30T05:18:50;23.42;;;18.88;;
11524;SDS011;5819;49.648;8.330;2024-01-30T05:21:18;27.73;;;19.00;;
11524;SDS011;5819;49.648;8.330;2024-01-30T05:23:46;28.90;;;19.03;;
11524;SDS011;5819;49.648;8.330;2024-01-30T05:26:14;22.83;;;18.30;;
11524;SDS011;5819;49.648;8.330;2024-01-30T05:28:42;22.00;;;17.37;;
11524;SDS011;5819;49.648;8.330;2024-01-30T05:31:10;26.52;;;19.15;;
11524;SDS011;5819;49.648;8.330;2024-01-30T05:33:40;23.47;;;17.87;;
11524;SDS011;5819;49.648;8.330;2024-01-30T05:36:11;21.97;;;18.33;;
11524;SDS011;5819;49.648;8.330;2024-01-30T05:38:39;22.98;;;17.73;;
11524;SDS011;5819;49.648;8.330;2024-01-30T05:41:07;22.67;;;18.27;;
11524;SDS011;5819;49.648;8.330;2024-01-30T05:43:35;25.33;;;17.85;;
11524;SDS011;5819;49.648;8.330;2024-01-30T05:46:04;26.17;;;18.80;;
11524;SDS011;5819;49.648;8.330;2024-01-30T05:48:32;21.60;;;18.37;;
11524;SDS011;5819;49.648;8.330;2024-01-30T05:51:03;23.27;;;18.00;;
11524;SDS011;5819;49.648;8.330;2024-01-30T05:53:31;24.92;;;18.60;;
11524;SDS011;5819;49.648;8.330;2024-01-30T05:56:00;24.97;;;18.73;;
11524;SDS011;5819;49.648;8.330;2024-01-30T05:58:29;25.33;;;18.77;;
11524;SDS011;5819;49.648;8.330;2024-01-30T06:00:58;24.97;;;18.97;;
11524;SDS011;5819;49.648;8.330;2024-01-30T06:03:26;23.87;;;18.30;;
11524;SDS011;5819;49.648;8.330;2024-01-30T06:05:54;24.57;;;18.87;;
11524;SDS011;5819;49.648;8.330;2024-01-30T06:08:23;24.02;;;18.75;;
11524;SDS011;5819;49.648;8.330;2024-01-30T06:10:51;24.03;;;19.10;;
11524;SDS011;5819;49.648;8.330;2024-01-30T06:13:19;26.17;;;19.23;;
11524;SDS011;5819;49.648;8.330;2024-01-30T06:15:47;24.27;;;18.57;;
11524;SDS011;5819;49.648;8.330;2024-01-30T06:18:15;23.70;;;18.20;;
11524;SDS011;5819;49.648;8.330;2024-01-30T06:20:43;23.57;;;18.97;;
11524;SDS011;5819;49.648;8.330;2024-01-30T06:23:11;23.40;;;18.57;;
11524;SDS011;5819;49.648;8.330;2024-01-30T06:25:40;26.37;;;19.03;;
11524;SDS011;5819;49.648;8.330;2024-01-30T06:28:08;24.43;;;19.27;;
11524;SDS011;5819;49.648;8.330;2024-01-30T06:30:36;25.20;;;19.97;;
11524;SDS011;5819;49.648;8.330;2024-01-30T06:33:04;25.03;;;19.70;;
11524;SDS011;5819;49.648;8.330;2024-01-30T06:35:32;24.95;;;18.50;;
11524;SDS011;5819;49.648;8.330;2024-01-30T06:38:02;24.00;;;18.38;;
11524;SDS011;5819;49.648;8.330;2024-01-30T06:40:30;27.10;;;20.35;;
11524;SDS011;5819;49.648;8.330;2024-01-30T06:42:59;30.50;;;23.20;;
11524;SDS011;5819;49.648;8.330;2024-01-30T06:45:28;30.77;;;21.37;;
11524;SDS011;5819;49.648;8.330;2024-01-30T06:47:56;30.42;;;20.15;;
11524;SDS011;5819;49.648;8.330;2024-01-30T06:50:24;30.40;;;19.73;;
11524;SDS011;5819;49.648;8.330;2024-01-30T06:52:53;27.98;;;21.00;;
11524;SDS011;5819;49.648;8.330;2024-01-30T06:55:21;30.15;;;20.88;;
11524;SDS011;5819;49.648;8.330;2024-01-30T06:57:51;26.27;;;19.25;;
11524;SDS011;5819;49.648;8.330;2024-01-30T07:00:20;28.40;;;19.87;;
11524;SDS011;5819;49.648;8.330;2024-01-30T07:02:49;25.10;;;19.17;;
11524;SDS011;5819;49.648;8.330;2024-01-30T07:05:16;24.77;;;18.40;;
11524;SDS011;5819;49.648;8.330;2024-01-30T07:07:44;29.23;;;19.37;;
11524;SDS011;5819;49.648;8.330;2024-01-30T07:10:12;25.30;;;18.53;;
11524;SDS011;5819;49.648;8.330;2024-01-30T07:12:41;22.83;;;17.43;;
11524;SDS011;5819;49.648;8.330;2024-01-30T07:15:09;23.80;;;18.13;;
11524;SDS011;5819;49.648;8.330;2024-01-30T07:17:39;22.60;;;18.17;;
11524;SDS011;5819;49.648;8.330;2024-01-30T07:20:08;22.10;;;17.50;;
11524;SDS011;5819;49.648;8.330;2024-01-30T07:22:42;23.53;;;18.27;;
11524;SDS011;5819;49.648;8.330;2024-01-30T07:25:11;23.53;;;18.57;;
11524;SDS011;5819;49.648;8.330;2024-01-30T07:27:39;23.60;;;18.45;;
11524;SDS011;5819;49.648;8.330;2024-01-30T07:30:07;25.13;;;18.00;;
11524;SDS011;5819;49.648;8.330;2024-01-30T07:32:35;25.67;;;18.00;;
11524;SDS011;5819;49.648;8.330;2024-01-30T07:35:05;22.40;;;16.93;;
11524;SDS011;5819;49.648;8.330;2024-01-30T07:37:35;20.50;;;17.60;;
11524;SDS011;5819;49.648;8.330;2024-01-30T07:40:03;21.97;;;18.77;;
11524;SDS011;5819;49.648;8.330;2024-01-30T07:42:33;24.70;;;19.63;;
11524;SDS011;5819;49.648;8.330;2024-01-30T07:45:01;25.30;;;18.90;;
11524;SDS011;5819;49.648;8.330;2024-01-30T07:47:29;24.57;;;18.93;;
11524;SDS011;5819;49.648;8.330;2024-01-30T07:49:57;22.13;;;19.27;;
11524;SDS011;5819;49.648;8.330;2024-01-30T07:52:26;25.90;;;19.10;;
11524;SDS011;5819;49.648;8.330;2024-01-30T07:54:54;25.07;;;19.43;;
11524;SDS011;5819;49.648;8.330;2024-01-30T07:57:22;22.30;;;18.60;;
11524;SDS011;5819;49.648;8.330;2024-01-30T07:59:51;24.20;;;19.25;;
11524;SDS011;5819;49.648;8.330;2024-01-30T08:02:18;23.80;;;18.97;;
11524;SDS011;5819;49.648;8.330;2024-01-30T08:04:47;25.63;;;19.80;;
11524;SDS011;5819;49.648;8.330;2024-01-30T08:07:16;24.65;;;18.55;;
11524;SDS011;5819;49.648;8.330;2024-01-30T08:09:47;22.38;;;18.75;;
11524;SDS011;5819;49.648;8.330;2024-01-30T08:12:15;23.63;;;19.57;;
11524;SDS011;5819;49.648;8.330;2024-01-30T08:14:43;26.53;;;20.43;;
11524;SDS011;5819;49.648;8.330;2024-01-30T08:17:11;26.65;;;20.38;;
11524;SDS011;5819;49.648;8.330;2024-01-30T08:19:39;27.80;;;20.58;;
11524;SDS011;5819;49.648;8.330;2024-01-30T08:22:08;25.85;;;20.50;;
11524;SDS011;5819;49.648;8.330;2024-01-30T08:24:35;25.63;;;20.02;;
11524;SDS011;5819;49.648;8.330;2024-01-30T08:27:05;26.20;;;19.92;;
11524;SDS011;5819;49.648;8.330;2024-01-30T08:29:36;26.05;;;19.08;;
11524;SDS011;5819;49.648;8.330;2024-01-30T08:32:04;23.55;;;19.48;;
11524;SDS011;5819;49.648;8.330;2024-01-30T08:34:32;23.95;;;19.25;;
11524;SDS011;5819;49.648;8.330;2024-01-30T08:37:00;24.67;;;18.50;;
11524;SDS011;5819;49.648;8.330;2024-01-30T08:39:28;23.60;;;19.13;;
11524;SDS011;5819;49.648;8.330;2024-01-30T08:41:56;26.20;;;19.90;;
11524;SDS011;5819;49.648;8.330;2024-01-30T08:44:26;26.48;;;20.15;;
11524;SDS011;5819;49.648;8.330;2024-01-30T08:46:54;25.23;;;20.77;;
11524;SDS011;5819;49.648;8.330;2024-01-30T08:49:23;22.23;;;18.88;;
11524;SDS011;5819;49.648;8.330;2024-01-30T08:51:51;24.15;;;19.33;;
11524;SDS011;5819;49.648;8.330;2024-01-30T08:54:19;24.80;;;18.98;;
11524;SDS011;5819;49.648;8.330;2024-01-30T08:56:47;23.80;;;19.70;;
11524;SDS011;5819;49.648;8.330;2024-01-30T08:59:15;26.15;;;19.83;;
11524;SDS011;5819;49.648;8.330;2024-01-30T09:01:44;22.38;;;19.83;;
11524;SDS011;5819;49.648;8.330;2024-01-30T09:04:28;25.63;;;19.33;;
11524;SDS011;5819;49.648;8.330;2024-01-30T09:06:57;26.10;;;19.17;;
11524;SDS011;5819;49.648;8.330;2024-01-30T09:09:25;23.35;;;18.85;;
11524;SDS011;5819;49.648;8.330;2024-01-30T09:11:53;22.83;;;19.40;;
11524;SDS011;5819;49.648;8.330;2024-01-30T09:14:21;23.42;;;19.05;;
11524;SDS011;5819;49.648;8.330;2024-01-30T09:16:51;21.80;;;18.45;;
11524;SDS011;5819;49.648;8.330;2024-01-30T09:19:18;23.02;;;19.08;;
11524;SDS011;5819;49.648;8.330;2024-01-30T09:21:46;23.00;;;18.98;;
11524;SDS011;5819;49.648;8.330;2024-01-30T09:24:14;23.42;;;18.35;;
11524;SDS011;5819;49.648;8.330;2024-01-30T09:26:42;23.08;;;19.90;;
11524;SDS011;5819;49.648;8.330;2024-01-30T09:29:10;21.42;;;18.20;;
11524;SDS011;5819;49.648;8.330;2024-01-30T09:31:38;23.05;;;18.48;;
11524;SDS011;5819;49.648;8.330;2024-01-30T09:34:07;25.30;;;17.67;;
11524;SDS011;5819;49.648;8.330;2024-01-30T09:36:35;24.30;;;17.65;;
11524;SDS011;5819;49.648;8.330;2024-01-30T09:39:03;23.27;;;17.98;;
11524;SDS011;5819;49.648;8.330;2024-01-30T09:41:32;22.25;;;18.73;;
11524;SDS011;5819;49.648;8.330;2024-01-30T09:44:07;23.13;;;18.35;;
11524;SDS011;5819;49.648;8.330;2024-01-30T09:46:38;25.88;;;20.33;;
11524;SDS011;5819;49.648;8.330;2024-01-30T09:49:08;22.95;;;18.80;;
11524;SDS011;5819;49.648;8.330;2024-01-30T09:51:36;24.88;;;20.02;;
11524;SDS011;5819;49.648;8.330;2024-01-30T09:54:05;22.40;;;18.92;;
11524;SDS011;5819;49.648;8.330;2024-01-30T09:56:35;27.85;;;19.45;;
11524;SDS011;5819;49.648;8.330;2024-01-30T09:59:04;24.50;;;20.25;;
11524;SDS011;5819;49.648;8.330;2024-01-30T10:01:33;24.70;;;20.35;;
11524;SDS011;5819;49.648;8.330;2024-01-30T10:04:03;24.80;;;20.80;;
11524;SDS011;5819;49.648;8.330;2024-01-30T10:06:33;33.03;;;23.90;;
11524;SDS011;5819;49.648;8.330;2024-01-30T10:09:03;26.63;;;20.85;;
11524;SDS011;5819;49.648;8.330;2024-01-30T10:11:31;25.77;;;19.77;;
11524;SDS011;5819;49.648;8.330;2024-01-30T10:14:00;24.58;;;18.98;;
11524;SDS011;5819;49.648;8.330;2024-01-30T10:16:28;21.83;;;18.95;;
11524;SDS011;5819;49.648;8.330;2024-01-30T10:18:57;23.70;;;19.27;;
11524;SDS011;5819;49.648;8.330;2024-01-30T10:21:25;26.98;;;19.50;;
11524;SDS011;5819;49.648;8.330;2024-01-30T10:23:54;22.15;;;18.80;;
11524;SDS011;5819;49.648;8.330;2024-01-30T10:26:23;22.00;;;19.63;;
11524;SDS011;5819;49.648;8.330;2024-01-30T10:28:51;23.33;;;19.10;;
11524;SDS011;5819;49.648;8.330;2024-01-30T10:31:19;26.88;;;20.63;;
11524;SDS011;5819;49.648;8.330;2024-01-30T10:33:47;25.08;;;19.73;;
11524;SDS011;5819;49.648;8.330;2024-01-30T10:36:15;22.00;;;19.38;;
11524;SDS011;5819;49.648;8.330;2024-01-30T10:38:46;22.20;;;19.17;;
11524;SDS011;5819;49.648;8.330;2024-01-30T10:41:22;24.08;;;19.08;;
11524;SDS011;5819;49.648;8.330;2024-01-30T10:43:57;21.48;;;18.17;;
11524;SDS011;5819;49.648;8.330;2024-01-30T10:46:30;21.88;;;19.00;;
11524;SDS011;5819;49.648;8.330;2024-01-30T10:49:01;22.15;;;19.13;;
11524;SDS011;5819;49.648;8.330;2024-01-30T10:51:30;24.15;;;19.75;;
11524;SDS011;5819;49.648;8.330;2024-01-30T10:54:02;23.23;;;19.23;;
11524;SDS011;5819;49.648;8.330;2024-01-30T10:56:34;29.33;;;20.17;;
11524;SDS011;5819;49.648;8.330;2024-01-30T10:59:03;23.33;;;19.30;;
11524;SDS011;5819;49.648;8.330;2024-01-30T11:01:34;24.83;;;19.17;;
11524;SDS011;5819;49.648;8.330;2024-01-30T11:04:04;21.63;;;18.67;;
11524;SDS011;5819;49.648;8.330;2024-01-30T11:06:40;20.98;;;17.80;;
11524;SDS011;5819;49.648;8.330;2024-01-30T11:09:10;25.05;;;18.88;;
11524;SDS011;5819;49.648;8.330;2024-01-30T11:11:50;21.45;;;18.58;;
11524;SDS011;5819;49.648;8.330;2024-01-30T11:14:23;20.85;;;17.65;;
11524;SDS011;5819;49.648;8.330;2024-01-30T11:16:52;21.15;;;18.05;;
11524;SDS011;5819;49.648;8.330;2024-01-30T11:19:23;21.63;;;18.40;;
11524;SDS011;5819;49.648;8.330;2024-01-30T11:21:52;24.88;;;17.50;;
11524;SDS011;5819;49.648;8.330;2024-01-30T11:24:23;22.65;;;18.55;;
11524;SDS011;5819;49.648;8.330;2024-01-30T11:26:56;24.05;;;18.25;;
11524;SDS011;5819;49.648;8.330;2024-01-30T11:29:26;23.02;;;18.90;;
11524;SDS011;5819;49.648;8.330;2024-01-30T11:31:55;22.92;;;18.13;;
11524;SDS011;5819;49.648;8.330;2024-01-30T11:34:24;20.27;;;18.08;;
11524;SDS011;5819;49.648;8.330;2024-01-30T11:36:52;21.92;;;17.65;;
11524;SDS011;5819;49.648;8.330;2024-01-30T11:39:25;25.10;;;19.20;;
11524;SDS011;5819;49.648;8.330;2024-01-30T11:41:54;23.52;;;18.85;;
11524;SDS011;5819;49.648;8.330;2024-01-30T11:44:24;23.52;;;18.83;;
11524;SDS011;5819;49.648;8.330;2024-01-30T11:46:53;24.98;;;19.10;;
11524;SDS011;5819;49.648;8.330;2024-01-30T11:49:21;23.55;;;19.30;;
11524;SDS011;5819;49.648;8.330;2024-01-30T11:51:50;22.02;;;18.45;;
11524;SDS011;5819;49.648;8.330;2024-01-30T11:54:20;23.42;;;19.02;;
11524;SDS011;5819;49.648;8.330;2024-01-30T11:56:48;24.85;;;19.58;;
11524;SDS011;5819;49.648;8.330;2024-01-30T11:59:16;23.73;;;18.75;;
11524;SDS011;5819;49.648;8.330;2024-01-30T12:01:45;23.20;;;19.33;;
11524;SDS011;5819;49.648;8.330;2024-01-30T12:04:14;22.77;;;19.27;;
11524;SDS011;5819;49.648;8.330;2024-01-30T12:06:42;21.30;;;18.42;;
11524;SDS011;5819;49.648;8.330;2024-01-30T12:09:13;22.48;;;18.63;;
11524;SDS011;5819;49.648;8.330;2024-01-30T12:11:44;23.67;;;19.25;;
11524;SDS011;5819;49.648;8.330;2024-01-30T12:14:13;23.10;;;18.77;;
11524;SDS011;5819;49.648;8.330;2024-01-30T12:16:42;24.63;;;18.35;;
11524;SDS011;5819;49.648;8.330;2024-01-30T12:19:12;22.33;;;18.63;;
11524;SDS011;5819;49.648;8.330;2024-01-30T12:21:53;24.45;;;17.90;;
11524;SDS011;5819;49.648;8.330;2024-01-30T12:24:22;26.73;;;20.20;;
11524;SDS011;5819;49.648;8.330;2024-01-30T12:26:50;23.23;;;19.25;;
11524;SDS011;5819;49.648;8.330;2024-01-30T12:29:20;24.65;;;19.83;;
11524;SDS011;5819;49.648;8.330;2024-01-30T12:31:48;24.30;;;19.48;;
11524;SDS011;5819;49.648;8.330;2024-01-30T12:34:17;24.90;;;19.10;;
11524;SDS011;5819;49.648;8.330;2024-01-30T12:36:47;21.35;;;18.33;;
11524;SDS011;5819;49.648;8.330;2024-01-30T12:39:16;22.45;;;18.58;;
11524;SDS011;5819;49.648;8.330;2024-01-30T12:41:44;21.40;;;19.10;;
11524;SDS011;5819;49.648;8.330;2024-01-30T12:44:13;23.60;;;19.23;;
11524;SDS011;5819;49.648;8.330;2024-01-30T12:46:42;21.50;;;19.20;;
11524;SDS011;5819;49.648;8.330;2024-01-30T12:49:12;23.80;;;19.08;;
11524;SDS011;5819;49.648;8.330;2024-01-30T12:51:42;23.65;;;18.75;;
11524;SDS011;5819;49.648;8.330;2024-01-30T12:54:10;23.55;;;19.20;;
11524;SDS011;5819;49.648;8.330;2024-01-30T12:56:40;21.95;;;19.23;;
11524;SDS011;5819;49.648;8.330;2024-01-30T12:59:09;21.25;;;18.92;;
11524;SDS011;5819;49.648;8.330;2024-01-30T13:01:37;21.05;;;18.75;;
11524;SDS011;5819;49.648;8.330;2024-01-30T13:04:05;23.67;;;18.40;;
11524;SDS011;5819;49.648;8.330;2024-01-30T13:06:34;22.08;;;18.40;;
11524;SDS011;5819;49.648;8.330;2024-01-30T13:09:04;23.30;;;18.00;;
11524;SDS011;5819;49.648;8.330;2024-01-30T13:11:32;22.10;;;18.40;;
11524;SDS011;5819;49.648;8.330;2024-01-30T13:14:00;22.33;;;18.45;;
11524;SDS011;5819;49.648;8.330;2024-01-30T13:16:29;22.35;;;17.42;;
11524;SDS011;5819;49.648;8.330;2024-01-30T13:18:57;19.90;;;16.42;;
11524;SDS011;5819;49.648;8.330;2024-01-30T13:21:27;18.92;;;16.88;;
11524;SDS011;5819;49.648;8.330;2024-01-30T13:23:55;19.95;;;17.60;;
11524;SDS011;5819;49.648;8.330;2024-01-30T13:26:24;23.90;;;18.35;;
11524;SDS011;5819;49.648;8.330;2024-01-30T13:28:52;20.13;;;17.17;;
11524;SDS011;5819;49.648;8.330;2024-01-30T13:31:20;22.90;;;16.90;;
11524;SDS011;5819;49.648;8.330;2024-01-30T13:33:48;21.15;;;16.85;;
11524;SDS011;5819;49.648;8.330;2024-01-30T13:36:16;21.25;;;17.38;;
11524;SDS011;5819;49.648;8.330;2024-01-30T13:38:45;22.50;;;17.65;;
11524;SDS011;5819;49.648;8.330;2024-01-30T13:41:12;21.45;;;17.65;;
11524;SDS011;5819;49.648;8.330;2024-01-30T13:43:42;18.90;;;16.63;;
11524;SDS011;5819;49.648;8.330;2024-01-30T13:46:10;19.42;;;17.23;;
11524;SDS011;5819;49.648;8.330;2024-01-30T13:48:38;22.65;;;17.17;;
11524;SDS011;5819;49.648;8.330;2024-01-30T13:51:06;23.35;;;17.38;;
11524;SDS011;5819;49.648;8.330;2024-01-30T13:53:34;26.33;;;17.40;;
11524;SDS011;5819;49.648;8.330;2024-01-30T13:56:02;22.08;;;17.27;;
11524;SDS011;5819;49.648;8.330;2024-01-30T13:58:31;20.58;;;16.92;;
11524;SDS011;5819;49.648;8.330;2024-01-30T14:01:01;23.50;;;18.33;;
11524;SDS011;5819;49.648;8.330;2024-01-30T14:03:30;23.58;;;17.50;;
11524;SDS011;5819;49.648;8.330;2024-01-30T14:05:57;21.45;;;17.83;;
11524;SDS011;5819;49.648;8.330;2024-01-30T14:08:26;23.10;;;17.23;;
11524;SDS011;5819;49.648;8.330;2024-01-30T14:10:55;22.08;;;17.33;;
11524;SDS011;5819;49.648;8.330;2024-01-30T14:13:22;20.77;;;17.23;;
11524;SDS011;5819;49.648;8.330;2024-01-30T14:15:51;21.95;;;17.10;;
11524;SDS011;5819;49.648;8.330;2024-01-30T14:18:21;22.40;;;17.98;;
11524;SDS011;5819;49.648;8.330;2024-01-30T14:20:49;21.35;;;16.95;;
11524;SDS011;5819;49.648;8.330;2024-01-30T14:23:18;19.52;;;15.82;;
11524;SDS011;5819;49.648;8.330;2024-01-30T14:25:45;19.10;;;15.73;;
11524;SDS011;5819;49.648;8.330;2024-01-30T14:28:14;23.45;;;16.42;;
11524;SDS011;5819;49.648;8.330;2024-01-30T14:30:42;21.25;;;15.80;;
11524;SDS011;5819;49.648;8.330;2024-01-30T14:33:09;19.70;;;15.75;;
11524;SDS011;5819;49.648;8.330;2024-01-30T14:35:39;19.65;;;15.95;;
11524;SDS011;5819;49.648;8.330;2024-01-30T14:38:07;16.20;;;14.23;;
11524;SDS011;5819;49.648;8.330;2024-01-30T14:40:36;18.25;;;14.63;;
11524;SDS011;5819;49.648;8.330;2024-01-30T14:43:05;17.40;;;14.75;;